• Join FlightAware (Why Join?)
  • Login
  • US Flag 
08:24PM EST


 

Airport Tracker/Info


-or-


 

Live Flight TrackerFlight Track Log ✈ KAL1337 ✈ 22-Jul-2013 ✈ RKSS / GMP - RKJY / RSU

Flight Track Log - Related Links

Times and Time Zones

All times are in EDT time to prevent confusion due to time zone crossing. See the KAL1337 flight status page for this flight to view local times or setup timezone preferences in your user account.

Time Position Orientation Groundspeed Altitude Reporting Facility
EDT Latitude Longitude Course Direction KTS MPH feet Rate Location/Type
03:48AM 36.8984 126.9963 166° South  Level Estimated
03:49AM 36.8159 127.0218 166° South  Level Estimated
03:50AM 36.7333 127.0472 166° South  Level Estimated
03:51AM 36.6508 127.0725 166° South  Level Estimated
03:52AM 36.5683 127.0978 166° South  Level Estimated
03:53AM 36.4857 127.1231 166° South  Level Estimated
03:54AM 36.4032 127.1483 166° South  Level Estimated
03:55AM 36.3206 127.1734 166° South  Level Estimated
03:56AM 36.2381 127.1985 166° South  Level Estimated
03:57AM 36.1555 127.2235 166° South  Level Estimated
03:58AM 36.0730 127.2485 166° South  Level Estimated
03:59AM 35.9904 127.2734 166° South  Level Estimated
04:00AM 35.9078 127.2983 166° South  Level Estimated
04:01AM 35.8253 127.3231 166° South  Level Estimated
04:02AM 35.7427 127.3479 166° South  Level Estimated
04:03AM 35.6601 127.3726 166° South  Level Estimated
04:04AM 35.5775 127.3973 166° South  Level Estimated
04:05AM 35.4949 127.4219 166° South  Level Estimated
04:06AM 35.4369 127.4392 166° South  Level Estimated
04:07AM 35.3789 127.4564 166° South  Level Estimated
04:08AM 35.3209 127.4736 166° South  Level Estimated
04:09AM 35.2629 127.4908 166° South  Level Estimated
04:10AM 35.2049 127.5079 166° South  Level Estimated
04:11AM 35.1469 127.5251 166° South  Level Estimated
04:12AM 35.0889 127.5422 166° South  Level Estimated
04:13AM 35.0308 127.5593 166° South  Level Estimated
04:14AM 34.9728 127.5763 166° South  Level Estimated
04:15AM 34.9148 127.5934 166° South  Level Estimated
04:16AM 34.8568 127.6104 166° South  Level Estimated
04:17AM 34.8398 127.6153 166° South  Level Estimated
04:18AM 34.8398 127.6153 180° South  Level Estimated
04:19AM 34.8398 127.6153 180° South  Level Estimated
04:20AM 34.8398 127.6153 180° South  Level Estimated
04:21AM 34.8398 127.6153 180° South  Level Estimated
04:22AM 34.8398 127.6153 180° South  Level Estimated
04:23AM 34.8398 127.6153 180° South  Level Estimated
04:24AM 34.8398 127.6153 180° South  Level Estimated
04:25AM 34.8398 127.6153 180° South  Level Estimated
04:26AM 34.8398 127.6153 180° South  Level Estimated
04:27AM 34.8398 127.6153 180° South  Level Estimated